sensor_id;sensor_type;location;lat;lon;timestamp;P1;durP1;ratioP1;P2;durP2;ratioP2
71856;SDS011;63344;46.980;28.882;2022-12-18T00:02:25;14.05;;;7.38;;
71856;SDS011;63344;46.980;28.882;2022-12-18T00:04:53;13.80;;;6.57;;
71856;SDS011;63344;46.980;28.882;2022-12-18T00:07:20;15.55;;;7.43;;
71856;SDS011;63344;46.980;28.882;2022-12-18T00:09:48;17.45;;;7.65;;
71856;SDS011;63344;46.980;28.882;2022-12-18T00:12:16;15.18;;;7.18;;
71856;SDS011;63344;46.980;28.882;2022-12-18T00:14:44;14.65;;;6.07;;
71856;SDS011;63344;46.980;28.882;2022-12-18T00:17:11;16.55;;;6.63;;
71856;SDS011;63344;46.980;28.882;2022-12-18T00:19:39;12.80;;;6.65;;
71856;SDS011;63344;46.980;28.882;2022-12-18T00:22:06;19.30;;;7.78;;
71856;SDS011;63344;46.980;28.882;2022-12-18T00:24:34;17.88;;;8.02;;
71856;SDS011;63344;46.980;28.882;2022-12-18T00:27:01;15.88;;;6.22;;
71856;SDS011;63344;46.980;28.882;2022-12-18T00:29:28;14.07;;;6.60;;
71856;SDS011;63344;46.980;28.882;2022-12-18T00:31:56;14.40;;;6.75;;
71856;SDS011;63344;46.980;28.882;2022-12-18T00:34:23;18.13;;;7.72;;
71856;SDS011;63344;46.980;28.882;2022-12-18T00:36:51;12.55;;;6.03;;
71856;SDS011;63344;46.980;28.882;2022-12-18T00:39:19;19.90;;;7.13;;
71856;SDS011;63344;46.980;28.882;2022-12-18T00:41:47;20.45;;;7.13;;
71856;SDS011;63344;46.980;28.882;2022-12-18T00:44:33;17.58;;;7.55;;
71856;SDS011;63344;46.980;28.882;2022-12-18T00:47:01;15.95;;;7.10;;
71856;SDS011;63344;46.980;28.882;2022-12-18T00:49:28;15.45;;;5.65;;
71856;SDS011;63344;46.980;28.882;2022-12-18T00:51:55;18.83;;;8.48;;
71856;SDS011;63344;46.980;28.882;2022-12-18T00:54:22;18.02;;;7.65;;
71856;SDS011;63344;46.980;28.882;2022-12-18T00:56:49;20.13;;;7.80;;
71856;SDS011;63344;46.980;28.882;2022-12-18T00:59:17;16.13;;;7.65;;
71856;SDS011;63344;46.980;28.882;2022-12-18T01:01:45;13.35;;;5.93;;
71856;SDS011;63344;46.980;28.882;2022-12-18T01:04:14;22.65;;;9.23;;
71856;SDS011;63344;46.980;28.882;2022-12-18T01:06:42;18.80;;;7.82;;
71856;SDS011;63344;46.980;28.882;2022-12-18T01:09:10;18.23;;;7.70;;
71856;SDS011;63344;46.980;28.882;2022-12-18T01:11:37;18.10;;;8.32;;
71856;SDS011;63344;46.980;28.882;2022-12-18T01:14:05;15.82;;;6.95;;
71856;SDS011;63344;46.980;28.882;2022-12-18T01:16:37;17.30;;;8.48;;
71856;SDS011;63344;46.980;28.882;2022-12-18T01:19:08;23.45;;;9.10;;
71856;SDS011;63344;46.980;28.882;2022-12-18T01:21:35;23.13;;;9.45;;
71856;SDS011;63344;46.980;28.882;2022-12-18T01:24:02;15.88;;;6.78;;
71856;SDS011;63344;46.980;28.882;2022-12-18T01:26:31;20.58;;;8.38;;
71856;SDS011;63344;46.980;28.882;2022-12-18T01:28:58;18.17;;;9.13;;
71856;SDS011;63344;46.980;28.882;2022-12-18T01:31:27;19.95;;;8.48;;
71856;SDS011;63344;46.980;28.882;2022-12-18T01:34:03;20.67;;;8.38;;
71856;SDS011;63344;46.980;28.882;2022-12-18T01:36:32;17.00;;;7.60;;
71856;SDS011;63344;46.980;28.882;2022-12-18T01:39:03;19.48;;;8.43;;
71856;SDS011;63344;46.980;28.882;2022-12-18T01:41:33;13.07;;;6.03;;
71856;SDS011;63344;46.980;28.882;2022-12-18T01:47:16;18.05;;;6.68;;
71856;SDS011;63344;46.980;28.882;2022-12-18T01:49:57;19.77;;;7.25;;
71856;SDS011;63344;46.980;28.882;2022-12-18T01:52:28;19.13;;;7.53;;
71856;SDS011;63344;46.980;28.882;2022-12-18T01:54:59;18.23;;;8.90;;
71856;SDS011;63344;46.980;28.882;2022-12-18T01:57:28;23.98;;;8.40;;
71856;SDS011;63344;46.980;28.882;2022-12-18T01:59:59;23.92;;;8.65;;
71856;SDS011;63344;46.980;28.882;2022-12-18T02:02:28;21.25;;;8.07;;
71856;SDS011;63344;46.980;28.882;2022-12-18T02:04:57;26.90;;;9.10;;
71856;SDS011;63344;46.980;28.882;2022-12-18T02:10:27;23.73;;;9.48;;
71856;SDS011;63344;46.980;28.882;2022-12-18T02:13:23;25.17;;;9.73;;
71856;SDS011;63344;46.980;28.882;2022-12-18T02:16:02;23.23;;;9.20;;
71856;SDS011;63344;46.980;28.882;2022-12-18T02:18:41;20.77;;;8.40;;
71856;SDS011;63344;46.980;28.882;2022-12-18T02:24:34;22.77;;;10.02;;
71856;SDS011;63344;46.980;28.882;2022-12-18T02:27:19;21.70;;;9.98;;
71856;SDS011;63344;46.980;28.882;2022-12-18T02:29:51;26.85;;;8.75;;
71856;SDS011;63344;46.980;28.882;2022-12-18T02:32:25;18.77;;;8.75;;
71856;SDS011;63344;46.980;28.882;2022-12-18T02:34:56;25.80;;;10.10;;
71856;SDS011;63344;46.980;28.882;2022-12-18T02:37:25;24.63;;;9.52;;
71856;SDS011;63344;46.980;28.882;2022-12-18T02:42:23;24.13;;;10.48;;
71856;SDS011;63344;46.980;28.882;2022-12-18T02:44:51;26.08;;;9.93;;
71856;SDS011;63344;46.980;28.882;2022-12-18T02:47:23;19.95;;;9.10;;
71856;SDS011;63344;46.980;28.882;2022-12-18T02:50:10;24.90;;;10.00;;
71856;SDS011;63344;46.980;28.882;2022-12-18T02:58:32;24.77;;;8.52;;
71856;SDS011;63344;46.980;28.882;2022-12-18T03:04:18;19.40;;;7.63;;
71856;SDS011;63344;46.980;28.882;2022-12-18T03:06:56;24.40;;;9.55;;
71856;SDS011;63344;46.980;28.882;2022-12-18T03:09:30;25.92;;;10.18;;
71856;SDS011;63344;46.980;28.882;2022-12-18T03:12:35;21.63;;;8.75;;
71856;SDS011;63344;46.980;28.882;2022-12-18T03:17:56;20.83;;;9.93;;
71856;SDS011;63344;46.980;28.882;2022-12-18T03:20:29;19.92;;;8.35;;
71856;SDS011;63344;46.980;28.882;2022-12-18T03:23:02;23.55;;;8.20;;
71856;SDS011;63344;46.980;28.882;2022-12-18T03:25:36;21.92;;;7.70;;
71856;SDS011;63344;46.980;28.882;2022-12-18T03:28:09;25.55;;;9.93;;
71856;SDS011;63344;46.980;28.882;2022-12-18T03:30:41;24.10;;;8.88;;
71856;SDS011;63344;46.980;28.882;2022-12-18T03:35:50;26.20;;;10.30;;
71856;SDS011;63344;46.980;28.882;2022-12-18T03:38:25;19.23;;;7.57;;
71856;SDS011;63344;46.980;28.882;2022-12-18T03:40:56;24.50;;;9.27;;
71856;SDS011;63344;46.980;28.882;2022-12-18T03:43:35;18.30;;;6.88;;
71856;SDS011;63344;46.980;28.882;2022-12-18T03:46:08;27.15;;;10.80;;
71856;SDS011;63344;46.980;28.882;2022-12-18T03:48:45;31.65;;;11.88;;
71856;SDS011;63344;46.980;28.882;2022-12-18T03:51:26;29.38;;;10.48;;
71856;SDS011;63344;46.980;28.882;2022-12-18T03:54:06;26.80;;;10.15;;
71856;SDS011;63344;46.980;28.882;2022-12-18T03:59:07;30.15;;;11.52;;
71856;SDS011;63344;46.980;28.882;2022-12-18T04:01:41;22.73;;;9.20;;
71856;SDS011;63344;46.980;28.882;2022-12-18T04:04:14;26.50;;;11.18;;
71856;SDS011;63344;46.980;28.882;2022-12-18T04:06:45;26.58;;;9.90;;
71856;SDS011;63344;46.980;28.882;2022-12-18T04:09:15;26.05;;;10.88;;
71856;SDS011;63344;46.980;28.882;2022-12-18T04:11:42;25.33;;;9.77;;
71856;SDS011;63344;46.980;28.882;2022-12-18T04:14:12;31.83;;;12.25;;
71856;SDS011;63344;46.980;28.882;2022-12-18T04:16:44;31.48;;;11.60;;
71856;SDS011;63344;46.980;28.882;2022-12-18T04:19:12;31.27;;;12.10;;
71856;SDS011;63344;46.980;28.882;2022-12-18T04:21:39;24.92;;;10.63;;
71856;SDS011;63344;46.980;28.882;2022-12-18T04:24:08;21.05;;;8.30;;
71856;SDS011;63344;46.980;28.882;2022-12-18T04:26:35;30.95;;;10.82;;
71856;SDS011;63344;46.980;28.882;2022-12-18T04:29:02;26.42;;;10.60;;
71856;SDS011;63344;46.980;28.882;2022-12-18T04:31:29;24.83;;;10.07;;
71856;SDS011;63344;46.980;28.882;2022-12-18T04:33:57;21.45;;;8.85;;
71856;SDS011;63344;46.980;28.882;2022-12-18T04:36:27;28.80;;;12.07;;
71856;SDS011;63344;46.980;28.882;2022-12-18T04:38:54;26.67;;;9.90;;
71856;SDS011;63344;46.980;28.882;2022-12-18T04:41:23;28.65;;;12.35;;
71856;SDS011;63344;46.980;28.882;2022-12-18T04:43:50;29.90;;;11.80;;
71856;SDS011;63344;46.980;28.882;2022-12-18T04:46:19;22.38;;;9.10;;
71856;SDS011;63344;46.980;28.882;2022-12-18T04:48:47;26.83;;;11.13;;
71856;SDS011;63344;46.980;28.882;2022-12-18T04:51:14;21.92;;;8.85;;
71856;SDS011;63344;46.980;28.882;2022-12-18T04:53:41;22.50;;;9.88;;
71856;SDS011;63344;46.980;28.882;2022-12-18T04:56:11;28.70;;;10.90;;
71856;SDS011;63344;46.980;28.882;2022-12-18T04:58:40;28.40;;;11.02;;
71856;SDS011;63344;46.980;28.882;2022-12-18T05:01:10;27.38;;;11.23;;
71856;SDS011;63344;46.980;28.882;2022-12-18T05:03:39;18.88;;;8.35;;
71856;SDS011;63344;46.980;28.882;2022-12-18T05:06:07;20.48;;;7.68;;
71856;SDS011;63344;46.980;28.882;2022-12-18T05:08:38;22.50;;;10.35;;
71856;SDS011;63344;46.980;28.882;2022-12-18T05:11:09;23.17;;;8.57;;
71856;SDS011;63344;46.980;28.882;2022-12-18T05:13:43;21.63;;;8.60;;
71856;SDS011;63344;46.980;28.882;2022-12-18T05:16:20;21.90;;;9.38;;
71856;SDS011;63344;46.980;28.882;2022-12-18T05:18:48;20.77;;;8.82;;
71856;SDS011;63344;46.980;28.882;2022-12-18T05:21:15;22.88;;;9.70;;
71856;SDS011;63344;46.980;28.882;2022-12-18T05:23:43;21.33;;;8.65;;
71856;SDS011;63344;46.980;28.882;2022-12-18T05:26:10;18.02;;;7.63;;
71856;SDS011;63344;46.980;28.882;2022-12-18T05:28:45;24.52;;;10.10;;
71856;SDS011;63344;46.980;28.882;2022-12-18T05:31:14;22.90;;;9.10;;
71856;SDS011;63344;46.980;28.882;2022-12-18T05:33:46;20.38;;;7.93;;
71856;SDS011;63344;46.980;28.882;2022-12-18T05:36:15;18.23;;;7.70;;
71856;SDS011;63344;46.980;28.882;2022-12-18T05:38:58;17.50;;;7.07;;
71856;SDS011;63344;46.980;28.882;2022-12-18T05:41:36;18.25;;;8.05;;
71856;SDS011;63344;46.980;28.882;2022-12-18T05:44:08;18.70;;;7.47;;
71856;SDS011;63344;46.980;28.882;2022-12-18T05:46:36;18.77;;;8.57;;
71856;SDS011;63344;46.980;28.882;2022-12-18T05:49:04;19.70;;;7.15;;
71856;SDS011;63344;46.980;28.882;2022-12-18T05:51:46;18.60;;;8.32;;
71856;SDS011;63344;46.980;28.882;2022-12-18T05:54:14;16.65;;;7.65;;
71856;SDS011;63344;46.980;28.882;2022-12-18T05:56:41;18.27;;;7.75;;
71856;SDS011;63344;46.980;28.882;2022-12-18T05:59:37;22.48;;;8.18;;
71856;SDS011;63344;46.980;28.882;2022-12-18T06:02:19;19.27;;;9.95;;
71856;SDS011;63344;46.980;28.882;2022-12-18T06:04:48;18.23;;;7.57;;
71856;SDS011;63344;46.980;28.882;2022-12-18T06:07:15;16.40;;;7.28;;
71856;SDS011;63344;46.980;28.882;2022-12-18T06:09:42;14.48;;;7.40;;
71856;SDS011;63344;46.980;28.882;2022-12-18T06:12:09;17.75;;;7.57;;
71856;SDS011;63344;46.980;28.882;2022-12-18T06:14:37;21.60;;;8.75;;
71856;SDS011;63344;46.980;28.882;2022-12-18T06:17:07;11.95;;;5.07;;
71856;SDS011;63344;46.980;28.882;2022-12-18T06:19:47;17.40;;;7.20;;
71856;SDS011;63344;46.980;28.882;2022-12-18T06:22:31;20.42;;;8.25;;
71856;SDS011;63344;46.980;28.882;2022-12-18T06:25:20;17.17;;;7.00;;
71856;SDS011;63344;46.980;28.882;2022-12-18T06:27:47;20.67;;;8.45;;
71856;SDS011;63344;46.980;28.882;2022-12-18T06:30:15;15.85;;;6.80;;
71856;SDS011;63344;46.980;28.882;2022-12-18T06:32:45;14.98;;;7.10;;
71856;SDS011;63344;46.980;28.882;2022-12-18T06:35:24;19.05;;;7.63;;
71856;SDS011;63344;46.980;28.882;2022-12-18T06:37:51;16.13;;;5.90;;
71856;SDS011;63344;46.980;28.882;2022-12-18T06:40:18;17.30;;;6.40;;
71856;SDS011;63344;46.980;28.882;2022-12-18T06:42:45;23.10;;;8.80;;
71856;SDS011;63344;46.980;28.882;2022-12-18T06:45:16;13.80;;;6.00;;
71856;SDS011;63344;46.980;28.882;2022-12-18T06:47:43;18.70;;;7.60;;
71856;SDS011;63344;46.980;28.882;2022-12-18T06:50:11;20.77;;;8.13;;
71856;SDS011;63344;46.980;28.882;2022-12-18T06:52:39;19.20;;;8.68;;
71856;SDS011;63344;46.980;28.882;2022-12-18T06:55:09;20.17;;;9.02;;
71856;SDS011;63344;46.980;28.882;2022-12-18T06:57:40;17.42;;;7.60;;
71856;SDS011;63344;46.980;28.882;2022-12-18T07:00:07;21.50;;;8.40;;
71856;SDS011;63344;46.980;28.882;2022-12-18T07:02:35;21.88;;;8.65;;
71856;SDS011;63344;46.980;28.882;2022-12-18T07:05:05;18.90;;;7.60;;
71856;SDS011;63344;46.980;28.882;2022-12-18T07:07:36;22.33;;;7.95;;
71856;SDS011;63344;46.980;28.882;2022-12-18T07:12:33;14.45;;;6.88;;
71856;SDS011;63344;46.980;28.882;2022-12-18T07:17:57;17.65;;;8.43;;
71856;SDS011;63344;46.980;28.882;2022-12-18T07:20:28;21.25;;;7.60;;
71856;SDS011;63344;46.980;28.882;2022-12-18T07:22:55;16.02;;;7.13;;
71856;SDS011;63344;46.980;28.882;2022-12-18T07:25:47;19.75;;;10.32;;
71856;SDS011;63344;46.980;28.882;2022-12-18T07:28:32;15.98;;;7.47;;
71856;SDS011;63344;46.980;28.882;2022-12-18T07:31:07;13.90;;;6.68;;
71856;SDS011;63344;46.980;28.882;2022-12-18T07:33:37;18.63;;;7.45;;
71856;SDS011;63344;46.980;28.882;2022-12-18T07:36:06;19.55;;;9.88;;
71856;SDS011;63344;46.980;28.882;2022-12-18T07:38:39;21.65;;;9.52;;
71856;SDS011;63344;46.980;28.882;2022-12-18T07:41:13;14.65;;;6.97;;
71856;SDS011;63344;46.980;28.882;2022-12-18T07:43:46;14.57;;;6.28;;
71856;SDS011;63344;46.980;28.882;2022-12-18T07:46:14;19.23;;;8.27;;
71856;SDS011;63344;46.980;28.882;2022-12-18T07:48:47;14.77;;;6.30;;
71856;SDS011;63344;46.980;28.882;2022-12-18T07:51:19;20.85;;;7.78;;
71856;SDS011;63344;46.980;28.882;2022-12-18T07:53:46;22.60;;;8.38;;
71856;SDS011;63344;46.980;28.882;2022-12-18T07:56:17;21.23;;;8.20;;
71856;SDS011;63344;46.980;28.882;2022-12-18T07:58:58;17.48;;;6.82;;
71856;SDS011;63344;46.980;28.882;2022-12-18T08:01:29;18.23;;;7.38;;
71856;SDS011;63344;46.980;28.882;2022-12-18T08:03:57;19.50;;;8.25;;
71856;SDS011;63344;46.980;28.882;2022-12-18T08:06:24;22.58;;;9.57;;
71856;SDS011;63344;46.980;28.882;2022-12-18T08:08:52;21.88;;;8.32;;
71856;SDS011;63344;46.980;28.882;2022-12-18T08:11:21;20.92;;;7.57;;
71856;SDS011;63344;46.980;28.882;2022-12-18T08:13:59;26.52;;;9.45;;
71856;SDS011;63344;46.980;28.882;2022-12-18T08:16:36;20.65;;;9.45;;
71856;SDS011;63344;46.980;28.882;2022-12-18T08:19:05;17.23;;;7.43;;
71856;SDS011;63344;46.980;28.882;2022-12-18T08:21:33;18.75;;;7.43;;
71856;SDS011;63344;46.980;28.882;2022-12-18T08:24:08;22.65;;;9.52;;
71856;SDS011;63344;46.980;28.882;2022-12-18T08:26:36;20.38;;;8.32;;
71856;SDS011;63344;46.980;28.882;2022-12-18T08:29:06;20.13;;;8.65;;
71856;SDS011;63344;46.980;28.882;2022-12-18T08:31:49;24.60;;;9.82;;
71856;SDS011;63344;46.980;28.882;2022-12-18T08:37:16;28.10;;;12.07;;
71856;SDS011;63344;46.980;28.882;2022-12-18T08:39:44;23.52;;;10.10;;
71856;SDS011;63344;46.980;28.882;2022-12-18T08:42:14;22.83;;;9.90;;
71856;SDS011;63344;46.980;28.882;2022-12-18T08:45:20;29.50;;;11.00;;
71856;SDS011;63344;46.980;28.882;2022-12-18T08:47:47;22.65;;;8.48;;
71856;SDS011;63344;46.980;28.882;2022-12-18T08:50:15;25.05;;;10.18;;
71856;SDS011;63344;46.980;28.882;2022-12-18T08:52:45;23.00;;;9.65;;
71856;SDS011;63344;46.980;28.882;2022-12-18T08:55:13;24.13;;;10.02;;
71856;SDS011;63344;46.980;28.882;2022-12-18T08:57:40;28.38;;;11.65;;
71856;SDS011;63344;46.980;28.882;2022-12-18T09:00:23;27.55;;;10.52;;
71856;SDS011;63344;46.980;28.882;2022-12-18T09:05:38;23.65;;;9.30;;
71856;SDS011;63344;46.980;28.882;2022-12-18T09:08:11;22.77;;;9.07;;
71856;SDS011;63344;46.980;28.882;2022-12-18T09:11:18;23.65;;;9.85;;
71856;SDS011;63344;46.980;28.882;2022-12-18T09:14:25;27.10;;;9.95;;
71856;SDS011;63344;46.980;28.882;2022-12-18T09:19:26;22.50;;;9.02;;
71856;SDS011;63344;46.980;28.882;2022-12-18T09:22:11;21.63;;;8.98;;
71856;SDS011;63344;46.980;28.882;2022-12-18T09:24:43;26.85;;;9.98;;
71856;SDS011;63344;46.980;28.882;2022-12-18T09:27:11;28.42;;;10.75;;
71856;SDS011;63344;46.980;28.882;2022-12-18T09:29:39;21.10;;;8.55;;
71856;SDS011;63344;46.980;28.882;2022-12-18T09:32:09;27.80;;;10.07;;
71856;SDS011;63344;46.980;28.882;2022-12-18T09:34:41;23.17;;;9.65;;
71856;SDS011;63344;46.980;28.882;2022-12-18T09:37:08;25.00;;;9.65;;
71856;SDS011;63344;46.980;28.882;2022-12-18T09:39:50;30.60;;;11.60;;
71856;SDS011;63344;46.980;28.882;2022-12-18T09:42:22;30.42;;;13.07;;
71856;SDS011;63344;46.980;28.882;2022-12-18T09:44:52;30.65;;;11.23;;
71856;SDS011;63344;46.980;28.882;2022-12-18T09:47:28;27.42;;;10.07;;
71856;SDS011;63344;46.980;28.882;2022-12-18T09:50:05;29.70;;;10.15;;
71856;SDS011;63344;46.980;28.882;2022-12-18T09:52:51;26.50;;;9.30;;
71856;SDS011;63344;46.980;28.882;2022-12-18T09:58:06;25.05;;;10.20;;
71856;SDS011;63344;46.980;28.882;2022-12-18T10:00:40;18.25;;;7.70;;
71856;SDS011;63344;46.980;28.882;2022-12-18T10:03:09;22.20;;;9.93;;
71856;SDS011;63344;46.980;28.882;2022-12-18T10:17:10;18.52;;;7.50;;
71856;SDS011;63344;46.980;28.882;2022-12-18T10:26:07;20.55;;;6.25;;
71856;SDS011;63344;46.980;28.882;2022-12-18T10:28:36;17.65;;;7.45;;
71856;SDS011;63344;46.980;28.882;2022-12-18T10:31:20;21.10;;;9.13;;
71856;SDS011;63344;46.980;28.882;2022-12-18T10:33:53;19.98;;;8.90;;
71856;SDS011;63344;46.980;28.882;2022-12-18T10:36:27;18.48;;;6.32;;
71856;SDS011;63344;46.980;28.882;2022-12-18T10:39:07;17.25;;;7.80;;
71856;SDS011;63344;46.980;28.882;2022-12-18T10:41:42;15.65;;;6.55;;
71856;SDS011;63344;46.980;28.882;2022-12-18T10:44:20;21.45;;;8.88;;
71856;SDS011;63344;46.980;28.882;2022-12-18T10:46:52;24.17;;;9.15;;
71856;SDS011;63344;46.980;28.882;2022-12-18T10:49:26;19.27;;;8.40;;
71856;SDS011;63344;46.980;28.882;2022-12-18T10:52:15;24.42;;;9.25;;
71856;SDS011;63344;46.980;28.882;2022-12-18T10:59:57;19.20;;;7.72;;
71856;SDS011;63344;46.980;28.882;2022-12-18T11:02:27;20.33;;;7.35;;
71856;SDS011;63344;46.980;28.882;2022-12-18T11:05:22;20.45;;;7.07;;
71856;SDS011;63344;46.980;28.882;2022-12-18T11:07:55;20.02;;;8.02;;
71856;SDS011;63344;46.980;28.882;2022-12-18T11:10:26;22.60;;;9.70;;
71856;SDS011;63344;46.980;28.882;2022-12-18T11:12:55;27.02;;;10.57;;
71856;SDS011;63344;46.980;28.882;2022-12-18T11:15:27;21.80;;;10.10;;
71856;SDS011;63344;46.980;28.882;2022-12-18T11:17:57;22.77;;;8.13;;
71856;SDS011;63344;46.980;28.882;2022-12-18T11:20:31;23.63;;;8.90;;
71856;SDS011;63344;46.980;28.882;2022-12-18T11:23:03;22.10;;;8.85;;
71856;SDS011;63344;46.980;28.882;2022-12-18T11:25:56;28.05;;;10.23;;
71856;SDS011;63344;46.980;28.882;2022-12-18T11:28:49;23.67;;;9.27;;
71856;SDS011;63344;46.980;28.882;2022-12-18T11:31:50;25.08;;;9.63;;
71856;SDS011;63344;46.980;28.882;2022-12-18T11:35:21;20.88;;;8.77;;
71856;SDS011;63344;46.980;28.882;2022-12-18T11:38:10;24.25;;;10.73;;
71856;SDS011;63344;46.980;28.882;2022-12-18T11:40:47;18.48;;;7.57;;
71856;SDS011;63344;46.980;28.882;2022-12-18T11:46:12;24.05;;;8.20;;
71856;SDS011;63344;46.980;28.882;2022-12-18T11:51:51;12.00;;;5.10;;
71856;SDS011;63344;46.980;28.882;2022-12-18T11:54:25;17.25;;;7.22;;
71856;SDS011;63344;46.980;28.882;2022-12-18T11:56:57;16.75;;;6.30;;
71856;SDS011;63344;46.980;28.882;2022-12-18T12:05:37;14.20;;;5.15;;
71856;SDS011;63344;46.980;28.882;2022-12-18T12:14:14;15.13;;;6.25;;
71856;SDS011;63344;46.980;28.882;2022-12-18T12:23:28;13.10;;;5.22;;
71856;SDS011;63344;46.980;28.882;2022-12-18T12:26:32;10.48;;;4.55;;
71856;SDS011;63344;46.980;28.882;2022-12-18T12:29:34;15.07;;;5.30;;
71856;SDS011;63344;46.980;28.882;2022-12-18T12:32:22;10.60;;;5.10;;
71856;SDS011;63344;46.980;28.882;2022-12-18T12:38:35;13.98;;;4.90;;
71856;SDS011;63344;46.980;28.882;2022-12-18T12:41:55;10.13;;;4.28;;
71856;SDS011;63344;46.980;28.882;2022-12-18T12:44:44;13.60;;;4.97;;
71856;SDS011;63344;46.980;28.882;2022-12-18T12:49:55;11.98;;;4.18;;
71856;SDS011;63344;46.980;28.882;2022-12-18T12:52:35;12.13;;;4.97;;
71856;SDS011;63344;46.980;28.882;2022-12-18T12:55:43;12.88;;;4.20;;
71856;SDS011;63344;46.980;28.882;2022-12-18T13:01:03;8.93;;;3.85;;
71856;SDS011;63344;46.980;28.882;2022-12-18T13:15:46;8.77;;;3.45;;
71856;SDS011;63344;46.980;28.882;2022-12-18T13:18:37;9.25;;;4.22;;
71856;SDS011;63344;46.980;28.882;2022-12-18T13:21:23;13.07;;;4.57;;
71856;SDS011;63344;46.980;28.882;2022-12-18T13:23:57;9.57;;;4.63;;
71856;SDS011;63344;46.980;28.882;2022-12-18T13:27:24;15.15;;;4.32;;
71856;SDS011;63344;46.980;28.882;2022-12-18T13:30:56;8.57;;;3.63;;
71856;SDS011;63344;46.980;28.882;2022-12-18T13:38:38;11.00;;;3.95;;
71856;SDS011;63344;46.980;28.882;2022-12-18T13:43:47;1.35;;;0.88;;
71856;SDS011;63344;46.980;28.882;2022-12-18T13:46:30;10.57;;;3.50;;
71856;SDS011;63344;46.980;28.882;2022-12-18T13:51:41;8.70;;;3.60;;
71856;SDS011;63344;46.980;28.882;2022-12-18T13:54:18;8.90;;;3.88;;
71856;SDS011;63344;46.980;28.882;2022-12-18T13:57:02;9.05;;;3.95;;
71856;SDS011;63344;46.980;28.882;2022-12-18T13:59:39;6.40;;;3.03;;
71856;SDS011;63344;46.980;28.882;2022-12-18T14:02:13;6.07;;;2.50;;
71856;SDS011;63344;46.980;28.882;2022-12-18T14:04:44;13.32;;;3.50;;
71856;SDS011;63344;46.980;28.882;2022-12-18T14:07:24;9.50;;;3.47;;
71856;SDS011;63344;46.980;28.882;2022-12-18T14:10:00;9.30;;;3.92;;
71856;SDS011;63344;46.980;28.882;2022-12-18T14:12:48;10.15;;;3.55;;
71856;SDS011;63344;46.980;28.882;2022-12-18T14:15:33;10.18;;;3.63;;
71856;SDS011;63344;46.980;28.882;2022-12-18T14:18:26;6.20;;;2.47;;
71856;SDS011;63344;46.980;28.882;2022-12-18T14:20:55;6.93;;;2.92;;
71856;SDS011;63344;46.980;28.882;2022-12-18T14:25:59;7.78;;;3.13;;
71856;SDS011;63344;46.980;28.882;2022-12-18T14:28:32;8.57;;;3.53;;
71856;SDS011;63344;46.980;28.882;2022-12-18T14:33:53;9.98;;;2.90;;
71856;SDS011;63344;46.980;28.882;2022-12-18T14:36:22;8.25;;;3.30;;
71856;SDS011;63344;46.980;28.882;2022-12-18T14:38:58;5.60;;;2.45;;
71856;SDS011;63344;46.980;28.882;2022-12-18T14:41:25;7.03;;;3.38;;
71856;SDS011;63344;46.980;28.882;2022-12-18T14:43:53;9.02;;;2.92;;
71856;SDS011;63344;46.980;28.882;2022-12-18T14:46:37;6.13;;;3.83;;
71856;SDS011;63344;46.980;28.882;2022-12-18T14:54:31;10.82;;;4.28;;
71856;SDS011;63344;46.980;28.882;2022-12-18T14:57:19;8.40;;;3.72;;
71856;SDS011;63344;46.980;28.882;2022-12-18T15:00:14;7.35;;;3.58;;
71856;SDS011;63344;46.980;28.882;2022-12-18T15:07:40;7.57;;;2.72;;
71856;SDS011;63344;46.980;28.882;2022-12-18T15:10:11;8.35;;;3.53;;
71856;SDS011;63344;46.980;28.882;2022-12-18T15:23:45;10.23;;;3.92;;
71856;SDS011;63344;46.980;28.882;2022-12-18T15:26:20;10.27;;;4.97;;
71856;SDS011;63344;46.980;28.882;2022-12-18T15:28:54;11.75;;;4.50;;
71856;SDS011;63344;46.980;28.882;2022-12-18T15:31:31;11.13;;;4.57;;
71856;SDS011;63344;46.980;28.882;2022-12-18T15:34:19;9.65;;;4.10;;
71856;SDS011;63344;46.980;28.882;2022-12-18T15:37:13;9.80;;;4.47;;
71856;SDS011;63344;46.980;28.882;2022-12-18T15:39:42;10.77;;;5.07;;
71856;SDS011;63344;46.980;28.882;2022-12-18T15:42:12;7.78;;;3.38;;
71856;SDS011;63344;46.980;28.882;2022-12-18T15:44:58;13.70;;;5.28;;
71856;SDS011;63344;46.980;28.882;2022-12-18T15:47:25;20.75;;;6.07;;
71856;SDS011;63344;46.980;28.882;2022-12-18T15:49:52;14.13;;;5.40;;
71856;SDS011;63344;46.980;28.882;2022-12-18T15:52:41;10.93;;;4.15;;
71856;SDS011;63344;46.980;28.882;2022-12-18T15:55:20;13.07;;;4.45;;
71856;SDS011;63344;46.980;28.882;2022-12-18T15:58:08;9.70;;;3.60;;
71856;SDS011;63344;46.980;28.882;2022-12-18T16:00:39;10.77;;;4.40;;
71856;SDS011;63344;46.980;28.882;2022-12-18T16:03:08;11.23;;;3.85;;
71856;SDS011;63344;46.980;28.882;2022-12-18T16:05:56;15.43;;;5.38;;
71856;SDS011;63344;46.980;28.882;2022-12-18T16:08:54;9.65;;;4.13;;
71856;SDS011;63344;46.980;28.882;2022-12-18T16:11:28;15.05;;;4.40;;
71856;SDS011;63344;46.980;28.882;2022-12-18T16:14:17;11.38;;;5.40;;
71856;SDS011;63344;46.980;28.882;2022-12-18T16:16:48;12.88;;;5.13;;
71856;SDS011;63344;46.980;28.882;2022-12-18T16:19:28;13.68;;;5.50;;
71856;SDS011;63344;46.980;28.882;2022-12-18T16:22:02;9.23;;;4.03;;
71856;SDS011;63344;46.980;28.882;2022-12-18T16:24:30;11.82;;;4.60;;
71856;SDS011;63344;46.980;28.882;2022-12-18T16:27:09;12.23;;;5.75;;
71856;SDS011;63344;46.980;28.882;2022-12-18T16:29:46;11.57;;;4.30;;
71856;SDS011;63344;46.980;28.882;2022-12-18T16:32:16;11.13;;;4.20;;
71856;SDS011;63344;46.980;28.882;2022-12-18T16:34:45;11.15;;;3.78;;
71856;SDS011;63344;46.980;28.882;2022-12-18T16:37:13;13.60;;;5.45;;
71856;SDS011;63344;46.980;28.882;2022-12-18T16:39:41;11.18;;;4.70;;
71856;SDS011;63344;46.980;28.882;2022-12-18T16:42:10;10.68;;;3.72;;
71856;SDS011;63344;46.980;28.882;2022-12-18T16:44:45;15.93;;;4.28;;
71856;SDS011;63344;46.980;28.882;2022-12-18T16:47:14;13.73;;;6.05;;
71856;SDS011;63344;46.980;28.882;2022-12-18T16:49:57;12.48;;;6.28;;
71856;SDS011;63344;46.980;28.882;2022-12-18T16:52:26;13.32;;;5.15;;
71856;SDS011;63344;46.980;28.882;2022-12-18T16:54:53;15.02;;;5.90;;
71856;SDS011;63344;46.980;28.882;2022-12-18T16:57:21;17.83;;;6.13;;
71856;SDS011;63344;46.980;28.882;2022-12-18T16:59:51;13.77;;;4.72;;
71856;SDS011;63344;46.980;28.882;2022-12-18T17:02:22;18.85;;;5.88;;
71856;SDS011;63344;46.980;28.882;2022-12-18T17:04:55;11.13;;;5.85;;
71856;SDS011;63344;46.980;28.882;2022-12-18T17:07:24;15.27;;;5.40;;
71856;SDS011;63344;46.980;28.882;2022-12-18T17:09:59;15.60;;;5.55;;
71856;SDS011;63344;46.980;28.882;2022-12-18T17:12:27;19.10;;;6.60;;
71856;SDS011;63344;46.980;28.882;2022-12-18T17:15:04;14.43;;;4.70;;
71856;SDS011;63344;46.980;28.882;2022-12-18T17:17:35;16.63;;;5.38;;
71856;SDS011;63344;46.980;28.882;2022-12-18T17:20:08;13.75;;;4.55;;
71856;SDS011;63344;46.980;28.882;2022-12-18T17:22:45;14.32;;;6.07;;
71856;SDS011;63344;46.980;28.882;2022-12-18T17:25:15;12.38;;;4.30;;
71856;SDS011;63344;46.980;28.882;2022-12-18T17:27:53;11.88;;;4.28;;
71856;SDS011;63344;46.980;28.882;2022-12-18T17:30:24;16.95;;;7.35;;
71856;SDS011;63344;46.980;28.882;2022-12-18T17:32:55;21.13;;;7.82;;
71856;SDS011;63344;46.980;28.882;2022-12-18T17:35:23;21.08;;;9.55;;